createdAt,value
2019-02-19T00:02:49.924Z,10.30
2019-02-19T00:05:41.046Z,10.23
2019-02-19T00:08:31.297Z,10.26
2019-02-19T00:11:21.578Z,10.27
2019-02-19T00:14:12.087Z,10.25
2019-02-19T00:17:02.294Z,10.25
2019-02-19T00:19:52.781Z,10.23
2019-02-19T00:22:44.175Z,10.23
2019-02-19T00:25:34.998Z,10.29
2019-02-19T00:28:25.383Z,10.28
2019-02-19T00:31:15.374Z,10.29
2019-02-19T00:34:05.672Z,10.15
2019-02-19T00:36:56.154Z,10.24
2019-02-19T00:39:46.562Z,10.20
2019-02-19T00:42:36.866Z,10.16
2019-02-19T00:45:27.097Z,10.11
2019-02-19T00:48:17.689Z,10.09
2019-02-19T00:51:07.850Z,10.11
2019-02-19T00:53:58.274Z,10.07
2019-02-19T00:56:48.333Z,9.99
2019-02-19T00:59:41.153Z,10.00
2019-02-19T01:02:31.464Z,10.01
2019-02-19T01:05:21.747Z,10.00
2019-02-19T01:08:12.194Z,10.05
2019-02-19T01:11:02.571Z,10.01
2019-02-19T01:13:54.189Z,9.98
2019-02-19T01:16:44.426Z,9.94
2019-02-19T01:19:34.790Z,9.90
2019-02-19T01:22:25.130Z,9.94
2019-02-19T01:25:15.478Z,9.84
2019-02-19T01:28:05.548Z,9.81
2019-02-19T01:30:55.930Z,9.84
2019-02-19T01:33:46.262Z,9.88
2019-02-19T01:36:36.442Z,10.02
2019-02-19T01:39:26.571Z,10.05
2019-02-19T01:42:16.852Z,10.08
2019-02-19T01:45:08.400Z,10.10
2019-02-19T01:47:58.340Z,10.13
2019-02-19T01:50:48.681Z,10.12
2019-02-19T01:53:38.948Z,10.09
2019-02-19T01:56:29.435Z,10.10
2019-02-19T01:59:19.861Z,10.11
2019-02-19T02:02:10.232Z,10.12
2019-02-19T02:05:00.545Z,10.14
2019-02-19T02:07:50.917Z,10.24
2019-02-19T02:10:40.837Z,10.26
2019-02-19T02:13:31.217Z,10.26
2019-02-19T02:16:21.521Z,10.28
2019-02-19T02:19:11.827Z,10.30
2019-02-19T02:22:02.106Z,10.26
2019-02-19T02:24:52.576Z,10.20
2019-02-19T02:27:43.142Z,10.16
2019-02-19T02:30:33.610Z,10.13
2019-02-19T02:33:25.008Z,10.05
2019-02-19T02:36:15.133Z,10.02
2019-02-19T02:39:06.629Z,10.00
2019-02-19T02:41:56.663Z,9.95
2019-02-19T02:44:46.936Z,10.03
2019-02-19T02:47:37.307Z,9.99
2019-02-19T02:50:27.316Z,9.98
2019-02-19T02:53:17.515Z,9.97
2019-02-19T02:56:08.994Z,9.93
2019-02-19T02:58:59.220Z,9.96
2019-02-19T03:01:49.788Z,9.96
2019-02-19T03:04:40.279Z,9.97
2019-02-19T03:07:49.221Z,9.99
2019-02-19T03:10:39.188Z,10.07
2019-02-19T03:13:29.175Z,10.06
2019-02-19T03:16:19.500Z,10.04
2019-02-19T03:19:09.855Z,10.05
2019-02-19T03:22:00.048Z,10.02
2019-02-19T03:24:50.448Z,10.00
2019-02-19T03:27:40.828Z,9.99
2019-02-19T03:30:30.868Z,9.95
2019-02-19T03:33:21.263Z,9.93
2019-02-19T03:36:11.741Z,9.88
2019-02-19T03:39:02.265Z,9.88
2019-02-19T03:41:52.565Z,9.88
2019-02-19T03:44:42.835Z,9.81
2019-02-19T03:47:33.096Z,9.75
2019-02-19T03:50:23.490Z,9.71
2019-02-19T03:53:13.715Z,9.68
2019-02-19T03:56:03.933Z,9.69
2019-02-19T03:58:54.146Z,9.73
2019-02-19T04:01:44.531Z,9.74
2019-02-19T04:04:34.822Z,9.74
2019-02-19T04:07:25.330Z,9.79
2019-02-19T04:10:15.561Z,9.78
2019-02-19T04:13:05.871Z,9.78
2019-02-19T04:15:57.313Z,9.73
2019-02-19T04:18:47.602Z,9.73
2019-02-19T04:21:37.879Z,9.73
2019-02-19T04:24:28.205Z,9.77
2019-02-19T04:27:18.240Z,9.74
2019-02-19T04:30:08.603Z,9.70
2019-02-19T04:32:59.038Z,9.65
2019-02-19T04:35:49.304Z,9.60
2019-02-19T04:38:39.581Z,9.58
2019-02-19T04:41:29.771Z,9.54
2019-02-19T04:44:19.785Z,9.49
2019-02-19T04:47:10.244Z,9.43
2019-02-19T04:50:00.494Z,9.63
2019-02-19T04:52:50.783Z,9.71
2019-02-19T04:55:42.103Z,9.74
2019-02-19T04:58:35.179Z,9.77
2019-02-19T05:01:25.312Z,9.78
2019-02-19T05:04:15.646Z,9.80
2019-02-19T05:07:05.995Z,9.74
2019-02-19T05:09:56.546Z,9.82
2019-02-19T05:12:47.043Z,9.85
2019-02-19T05:15:37.352Z,9.92
2019-02-19T05:18:27.686Z,9.94
2019-02-19T05:21:18.061Z,9.96
2019-02-19T05:24:08.312Z,9.95
2019-02-19T05:26:58.492Z,9.93
2019-02-19T05:29:48.883Z,9.95
2019-02-19T05:32:39.398Z,9.98
2019-02-19T05:35:29.735Z,10.03
2019-02-19T05:38:20.186Z,10.14
2019-02-19T05:41:10.618Z,10.27
2019-02-19T05:44:00.970Z,10.36
2019-02-19T05:46:54.998Z,10.54
2019-02-19T05:49:46.800Z,10.72
2019-02-19T05:52:37.319Z,11.00
2019-02-19T05:55:27.640Z,11.27
2019-02-19T05:58:17.957Z,11.64
2019-02-19T06:01:08.263Z,12.11
2019-02-19T06:03:58.545Z,13.00
2019-02-19T06:06:49.094Z,13.85
2019-02-19T06:09:40.263Z,14.71
2019-02-19T06:12:30.544Z,15.57
2019-02-19T06:15:20.939Z,16.30
2019-02-19T06:18:11.482Z,17.30
2019-02-19T06:21:01.875Z,17.97
2019-02-19T06:23:52.876Z,18.98
2019-02-19T06:26:43.064Z,19.75
2019-02-19T06:29:33.205Z,20.76
2019-02-19T06:32:23.230Z,21.53
2019-02-19T06:35:13.605Z,22.32
2019-02-19T06:38:03.848Z,23.28
2019-02-19T06:40:54.526Z,23.83
2019-02-19T06:43:45.124Z,24.20
2019-02-19T06:46:36.120Z,24.59
2019-02-19T06:49:27.097Z,25.07
2019-02-19T06:52:18.134Z,25.28
2019-02-19T06:55:09.172Z,25.88
2019-02-19T06:58:00.714Z,26.44
2019-02-19T07:00:51.731Z,27.07
2019-02-19T07:03:51.024Z,27.67
2019-02-19T07:06:41.658Z,28.18
2019-02-19T07:09:32.640Z,28.06
2019-02-19T07:12:23.518Z,28.91
2019-02-19T07:15:17.008Z,28.12
2019-02-19T07:18:07.895Z,29.53
2019-02-19T07:20:58.822Z,30.18
2019-02-19T07:23:49.459Z,30.23
2019-02-19T07:26:40.454Z,30.27
2019-02-19T07:29:31.626Z,30.13
2019-02-19T07:32:22.778Z,29.25
2019-02-19T07:35:13.735Z,29.21
2019-02-19T07:38:04.656Z,29.05
2019-02-19T07:40:55.515Z,28.92
2019-02-19T07:43:46.407Z,28.44
2019-02-19T07:46:37.336Z,29.53
2019-02-19T07:49:28.215Z,28.30
2019-02-19T07:52:19.070Z,28.46
2019-02-19T07:55:09.889Z,29.15
2019-02-19T07:58:00.888Z,28.84
2019-02-19T08:00:52.025Z,28.95
2019-02-19T08:03:42.828Z,29.33
2019-02-19T08:06:33.749Z,28.25
2019-02-19T08:09:24.593Z,29.12
2019-02-19T08:12:15.554Z,28.96
2019-02-19T08:15:06.842Z,29.22
2019-02-19T08:18:01.987Z,28.02
2019-02-19T08:20:52.951Z,27.97
2019-02-19T08:23:44.179Z,28.56
2019-02-19T08:26:34.903Z,29.02
2019-02-19T08:29:26.053Z,28.32
2019-02-19T08:32:16.923Z,27.97
2019-02-19T08:35:08.043Z,27.10
2019-02-19T08:37:58.953Z,26.71
2019-02-19T08:40:49.843Z,27.28
2019-02-19T08:43:40.599Z,25.69
2019-02-19T08:46:31.536Z,25.70
2019-02-19T08:49:22.417Z,24.55
2019-02-19T08:52:13.348Z,23.79
2019-02-19T08:55:04.229Z,22.63
2019-02-19T08:57:55.574Z,22.53
2019-02-19T09:00:46.317Z,21.95
2019-02-19T09:03:36.588Z,21.80
2019-02-19T09:06:27.702Z,21.54
2019-02-19T09:09:17.826Z,21.00
2019-02-19T09:12:08.186Z,19.50
2019-02-19T09:14:58.709Z,19.32
2019-02-19T09:17:52.001Z,19.13
2019-02-19T09:20:41.167Z,18.39
2019-02-19T09:23:31.430Z,18.58
2019-02-19T09:26:21.672Z,19.50
2019-02-19T09:29:11.911Z,19.22
2019-02-19T09:32:02.760Z,19.27
2019-02-19T09:34:52.798Z,19.60
2019-02-19T09:37:43.347Z,20.12
2019-02-19T09:40:33.659Z,19.78
2019-02-19T09:43:25.358Z,19.54
2019-02-19T09:46:15.597Z,18.61
2019-02-19T09:49:06.163Z,18.11
2019-02-19T09:51:56.244Z,17.69
2019-02-19T09:54:46.926Z,17.23
2019-02-19T09:57:37.229Z,16.88
2019-02-19T10:00:27.369Z,16.55
2019-02-19T10:03:17.765Z,16.73
2019-02-19T10:06:08.012Z,16.57
2019-02-19T10:08:59.078Z,16.43
2019-02-19T10:11:49.393Z,16.35
2019-02-19T10:14:39.576Z,16.02
2019-02-19T10:17:29.987Z,15.94
2019-02-19T10:20:20.593Z,16.18
2019-02-19T10:23:10.916Z,16.38
2019-02-19T10:26:02.247Z,16.01
2019-02-19T10:28:52.555Z,15.77
2019-02-19T10:31:42.854Z,15.73
2019-02-19T10:34:33.573Z,15.49
2019-02-19T10:37:23.890Z,15.67
2019-02-19T10:40:15.696Z,15.65
2019-02-19T10:43:05.710Z,15.70
2019-02-19T10:45:56.053Z,15.64
2019-02-19T10:48:47.356Z,15.75
2019-02-19T10:51:38.507Z,15.67
2019-02-19T10:54:28.747Z,15.56
2019-02-19T10:57:19.237Z,15.40
2019-02-19T11:00:13.246Z,15.46
2019-02-19T11:03:03.648Z,15.52
2019-02-19T11:05:56.843Z,15.60
2019-02-19T11:08:47.056Z,15.75
2019-02-19T11:11:37.289Z,15.69
2019-02-19T11:14:27.698Z,15.57
2019-02-19T11:17:19.814Z,15.34
2019-02-19T11:20:11.326Z,15.57
2019-02-19T11:23:01.265Z,15.65
2019-02-19T11:25:51.617Z,15.67
2019-02-19T11:28:41.609Z,15.58
2019-02-19T11:31:32.016Z,15.44
2019-02-19T11:34:22.133Z,15.36
2019-02-19T11:37:12.512Z,15.23
2019-02-19T11:40:02.805Z,15.11
2019-02-19T11:42:53.692Z,15.13
2019-02-19T11:45:44.105Z,15.15
2019-02-19T11:48:36.932Z,15.16
2019-02-19T11:51:26.482Z,14.92
2019-02-19T11:54:16.684Z,14.94
2019-02-19T11:57:06.967Z,14.52
2019-02-19T11:59:57.003Z,14.78
2019-02-19T12:02:47.253Z,14.89
2019-02-19T12:05:37.365Z,14.82
2019-02-19T12:08:27.682Z,14.76
2019-02-19T12:11:18.295Z,14.83
2019-02-19T12:14:08.478Z,14.82
2019-02-19T12:16:59.109Z,14.85
2019-02-19T12:19:49.306Z,14.94
2019-02-19T12:22:39.441Z,14.90
2019-02-19T12:25:29.766Z,14.95
2019-02-19T12:28:22.900Z,15.09
2019-02-19T12:31:13.089Z,15.14
2019-02-19T12:34:03.148Z,15.18
2019-02-19T12:36:53.467Z,15.08
2019-02-19T12:39:43.864Z,14.96
2019-02-19T12:42:34.237Z,14.98
2019-02-19T12:45:24.759Z,14.91
2019-02-19T12:48:15.293Z,14.96
2019-02-19T12:51:05.541Z,14.87
2019-02-19T12:53:55.569Z,14.80
2019-02-19T12:56:45.800Z,14.74
2019-02-19T12:59:36.098Z,14.80
2019-02-19T13:02:26.469Z,14.83
2019-02-19T13:05:16.526Z,14.85
2019-02-19T13:08:07.030Z,14.89
2019-02-19T13:10:57.330Z,14.86
2019-02-19T13:13:47.540Z,14.94
2019-02-19T13:16:38.012Z,14.82
2019-02-19T13:19:28.143Z,14.75
2019-02-19T13:22:18.485Z,14.77
2019-02-19T13:25:09.444Z,14.82
2019-02-19T13:27:59.408Z,14.83
2019-02-19T13:30:49.837Z,14.85
2019-02-19T13:33:40.080Z,14.87
2019-02-19T13:36:30.227Z,14.87
2019-02-19T13:39:20.305Z,14.93
2019-02-19T13:42:10.632Z,14.93
2019-02-19T13:45:00.965Z,14.92
2019-02-19T13:47:51.378Z,14.86
2019-02-19T13:50:41.537Z,14.81
2019-02-19T13:53:54.614Z,14.90
2019-02-19T13:56:45.668Z,14.95
2019-02-19T13:59:36.370Z,14.88
2019-02-19T14:02:26.742Z,15.13
2019-02-19T14:05:17.165Z,15.34
2019-02-19T14:08:14.224Z,15.39
2019-02-19T14:10:59.076Z,15.46
2019-02-19T14:14:05.569Z,15.56
2019-02-19T14:17:02.344Z,15.52
2019-02-19T14:20:17.376Z,15.59
2019-02-19T14:23:30.013Z,15.61
2019-02-19T14:26:51.161Z,15.56
2019-02-19T14:30:15.804Z,15.51
2019-02-19T14:33:48.629Z,15.40
2019-02-19T14:36:49.918Z,15.43
2019-02-19T14:40:10.342Z,15.34
2019-02-19T14:43:18.488Z,15.31
2019-02-19T14:46:33.508Z,15.30
2019-02-19T14:49:47.511Z,15.28
2019-02-19T14:52:51.491Z,15.23
2019-02-19T14:56:19.069Z,15.24
2019-02-19T14:59:31.026Z,15.20
2019-02-19T15:02:52.254Z,15.20
2019-02-19T15:06:07.864Z,15.07
2019-02-19T15:09:29.270Z,14.98
2019-02-19T15:12:41.554Z,14.92
2019-02-19T15:16:06.069Z,14.91
2019-02-19T15:19:19.866Z,14.84
2019-02-19T15:22:36.348Z,14.76
2019-02-19T15:25:48.490Z,14.73
2019-02-19T15:29:06.782Z,14.66
2019-02-19T15:32:18.261Z,14.59
2019-02-19T15:35:27.673Z,14.54
2019-02-19T15:38:36.640Z,14.37
2019-02-19T15:41:45.689Z,14.39
2019-02-19T15:44:47.615Z,14.19
2019-02-19T15:47:55.726Z,14.12
2019-02-19T15:51:07.799Z,13.95
2019-02-19T15:54:08.529Z,13.81
2019-02-19T15:57:20.405Z,13.79
2019-02-19T16:00:42.044Z,13.66
2019-02-19T16:03:38.403Z,13.56
2019-02-19T16:06:48.596Z,13.48
2019-02-19T16:09:56.549Z,13.39
2019-02-19T16:13:11.780Z,13.30
2019-02-19T16:16:19.783Z,13.22
2019-02-19T16:19:38.460Z,13.15
2019-02-19T16:22:49.991Z,13.01
2019-02-19T16:26:01.430Z,12.94
2019-02-19T16:29:19.521Z,12.85
2019-02-19T16:32:35.144Z,12.83
2019-02-19T16:35:37.512Z,12.81
2019-02-19T16:38:40.381Z,12.76
2019-02-19T16:41:48.368Z,12.72
2019-02-19T16:45:13.104Z,12.72
2019-02-19T16:48:36.693Z,12.67
2019-02-19T16:51:47.534Z,12.67
2019-02-19T16:54:54.755Z,12.71
2019-02-19T16:58:04.143Z,12.67
2019-02-19T17:01:06.562Z,12.68
2019-02-19T17:04:16.555Z,12.60
2019-02-19T17:07:18.260Z,12.65
2019-02-19T17:10:47.143Z,12.67
2019-02-19T17:14:02.265Z,12.71
2019-02-19T17:17:07.001Z,12.70
2019-02-19T17:20:28.928Z,12.68
2019-02-19T17:23:25.387Z,12.70
2019-02-19T17:26:30.645Z,12.65
2019-02-19T17:29:42.474Z,12.70
2019-02-19T17:32:49.058Z,12.64
2019-02-19T17:35:45.999Z,12.73
2019-02-19T17:38:57.986Z,12.62
2019-02-19T17:41:57.053Z,12.69
2019-02-19T17:44:59.471Z,12.63
2019-02-19T17:48:17.894Z,12.51
2019-02-19T17:51:30.091Z,12.51
2019-02-19T17:54:34.625Z,12.49
2019-02-19T17:57:43.923Z,12.43
2019-02-19T18:00:49.108Z,12.44
2019-02-19T18:04:01.398Z,12.36
2019-02-19T18:07:28.434Z,12.33
2019-02-19T18:11:05.263Z,12.29
2019-02-19T18:14:17.378Z,12.20
2019-02-19T18:17:29.975Z,12.25
2019-02-19T18:20:20.074Z,12.26
2019-02-19T18:23:10.384Z,12.29
2019-02-19T18:26:01.144Z,12.28
2019-02-19T18:28:54.083Z,12.31
2019-02-19T18:31:44.260Z,12.29
2019-02-19T18:34:34.761Z,12.22
2019-02-19T18:37:25.099Z,12.20
2019-02-19T18:40:15.515Z,12.23
2019-02-19T18:43:05.873Z,12.25
2019-02-19T18:45:56.169Z,12.16
2019-02-19T18:48:46.480Z,12.16
2019-02-19T18:51:37.901Z,12.15
2019-02-19T18:54:28.786Z,12.16
2019-02-19T18:57:19.071Z,12.11
2019-02-19T19:00:10.509Z,12.09
2019-02-19T19:03:00.600Z,12.09
2019-02-19T19:05:51.070Z,12.12
2019-02-19T19:08:41.441Z,12.17
2019-02-19T19:11:31.904Z,12.19
2019-02-19T19:14:22.113Z,12.17
2019-02-19T19:17:12.407Z,12.20
2019-02-19T19:20:02.703Z,12.21
2019-02-19T19:22:53.036Z,12.26
2019-02-19T19:25:44.068Z,12.25
2019-02-19T19:28:34.452Z,12.27
2019-02-19T19:31:32.982Z,12.24
2019-02-19T19:34:16.400Z,12.24
2019-02-19T19:37:06.683Z,12.22
2019-02-19T19:39:56.935Z,12.23
2019-02-19T19:42:47.086Z,12.23
2019-02-19T19:45:37.431Z,12.24
2019-02-19T19:48:27.443Z,12.28
2019-02-19T19:51:18.094Z,12.21
2019-02-19T19:54:08.356Z,12.28
2019-02-19T19:56:58.878Z,12.21
2019-02-19T19:59:48.892Z,12.26
2019-02-19T20:02:39.514Z,12.31
2019-02-19T20:05:29.568Z,12.18
2019-02-19T20:08:20.102Z,12.26
2019-02-19T20:11:10.298Z,12.33
2019-02-19T20:14:00.683Z,12.33
2019-02-19T20:16:52.038Z,12.28
2019-02-19T20:19:42.195Z,12.30
2019-02-19T20:22:32.458Z,12.32
2019-02-19T20:25:22.602Z,12.30
2019-02-19T20:28:12.679Z,12.17
2019-02-19T20:31:03.928Z,12.06
2019-02-19T20:33:54.166Z,12.04
2019-02-19T20:36:44.552Z,12.00
2019-02-19T20:39:34.788Z,12.01
2019-02-19T20:42:25.327Z,11.92
2019-02-19T20:45:15.577Z,11.85
2019-02-19T20:48:06.028Z,11.86
2019-02-19T20:50:56.043Z,11.76
2019-02-19T20:53:46.224Z,11.73
2019-02-19T20:56:36.651Z,11.68
2019-02-19T20:59:26.806Z,11.74
2019-02-19T21:02:17.032Z,11.72
2019-02-19T21:05:07.813Z,11.64
2019-02-19T21:07:58.172Z,11.53
2019-02-19T21:10:48.690Z,11.52
2019-02-19T21:13:38.724Z,11.49
2019-02-19T21:16:29.151Z,11.51
2019-02-19T21:19:19.532Z,11.41
2019-02-19T21:22:09.974Z,11.41
2019-02-19T21:25:00.335Z,11.41
2019-02-19T21:27:50.829Z,11.39
2019-02-19T21:30:41.173Z,11.40
2019-02-19T21:33:31.520Z,11.39
2019-02-19T21:36:21.819Z,11.41
2019-02-19T21:39:12.763Z,11.36
2019-02-19T21:42:03.237Z,11.34
2019-02-19T21:44:53.614Z,11.31
2019-02-19T21:47:43.921Z,11.30
2019-02-19T21:50:34.435Z,11.29
2019-02-19T21:53:24.715Z,11.29
2019-02-19T21:56:15.001Z,11.22
2019-02-19T21:59:05.307Z,11.20
2019-02-19T22:01:55.966Z,11.17
2019-02-19T22:04:46.229Z,11.09
2019-02-19T22:07:36.645Z,11.11
2019-02-19T22:10:27.175Z,11.14
2019-02-19T22:13:17.630Z,11.15
2019-02-19T22:16:08.989Z,11.06
2019-02-19T22:18:59.123Z,11.00
2019-02-19T22:22:03.554Z,10.98
2019-02-19T22:24:51.405Z,11.02
2019-02-19T22:27:41.623Z,11.05
2019-02-19T22:30:31.759Z,11.04
2019-02-19T22:33:21.901Z,11.03
2019-02-19T22:36:12.478Z,11.00
2019-02-19T22:39:06.529Z,10.99
2019-02-19T22:41:58.350Z,10.99
2019-02-19T22:44:48.744Z,10.96
2019-02-19T22:47:39.123Z,10.96
2019-02-19T22:50:29.294Z,10.97
2019-02-19T22:53:37.365Z,10.92
2019-02-19T22:56:30.286Z,10.94
2019-02-19T22:59:21.608Z,10.89
2019-02-19T23:02:31.731Z,10.90
2019-02-19T23:05:22.196Z,10.88
2019-02-19T23:08:12.376Z,10.93
2019-02-19T23:11:02.719Z,10.88
2019-02-19T23:13:52.996Z,10.93
2019-02-19T23:16:43.123Z,10.93
2019-02-19T23:19:33.560Z,10.91
2019-02-19T23:22:24.196Z,10.92
2019-02-19T23:25:18.545Z,10.96
2019-02-19T23:28:08.582Z,10.94
2019-02-19T23:30:58.906Z,11.00
2019-02-19T23:33:49.166Z,11.00
2019-02-19T23:36:46.971Z,11.01
2019-02-19T23:39:43.381Z,11.02
2019-02-19T23:42:28.603Z,10.98
2019-02-19T23:45:18.978Z,11.00
2019-02-19T23:48:09.154Z,10.96
2019-02-19T23:50:59.628Z,10.99
2019-02-19T23:53:50.188Z,11.01
2019-02-19T23:56:40.674Z,10.94
2019-02-19T23:59:31.011Z,10.95
